sensor_id;sensor_type;location;lat;lon;timestamp;P1;durP1;ratioP1;P2;durP2;ratioP2
23432;SDS011;41331;45.412;10.992;2022-11-15T00:01:54;33.22;;;20.77;;
23432;SDS011;41331;45.412;10.992;2022-11-15T00:04:40;34.13;;;19.70;;
23432;SDS011;41331;45.412;10.992;2022-11-15T00:07:26;35.58;;;19.27;;
23432;SDS011;41331;45.412;10.992;2022-11-15T00:10:32;35.15;;;21.27;;
23432;SDS011;41331;45.412;10.992;2022-11-15T00:13:19;32.80;;;19.90;;
23432;SDS011;41331;45.412;10.992;2022-11-15T00:16:05;34.75;;;20.05;;
23432;SDS011;41331;45.412;10.992;2022-11-15T00:18:51;35.50;;;18.65;;
23432;SDS011;41331;45.412;10.992;2022-11-15T00:21:37;27.15;;;17.95;;
23432;SDS011;41331;45.412;10.992;2022-11-15T00:24:23;28.08;;;17.67;;
23432;SDS011;41331;45.412;10.992;2022-11-15T00:27:09;26.98;;;17.25;;
23432;SDS011;41331;45.412;10.992;2022-11-15T00:29:56;26.13;;;17.10;;
23432;SDS011;41331;45.412;10.992;2022-11-15T00:32:42;29.65;;;17.77;;
23432;SDS011;41331;45.412;10.992;2022-11-15T00:35:28;31.42;;;16.92;;
23432;SDS011;41331;45.412;10.992;2022-11-15T00:38:14;25.95;;;16.23;;
23432;SDS011;41331;45.412;10.992;2022-11-15T00:41:00;25.85;;;16.17;;
23432;SDS011;41331;45.412;10.992;2022-11-15T00:43:53;22.80;;;15.18;;
23432;SDS011;41331;45.412;10.992;2022-11-15T00:46:40;25.90;;;15.75;;
23432;SDS011;41331;45.412;10.992;2022-11-15T00:49:26;23.10;;;14.68;;
23432;SDS011;41331;45.412;10.992;2022-11-15T00:52:12;26.77;;;15.88;;
23432;SDS011;41331;45.412;10.992;2022-11-15T00:54:58;28.05;;;16.63;;
23432;SDS011;41331;45.412;10.992;2022-11-15T00:57:44;23.95;;;15.43;;
23432;SDS011;41331;45.412;10.992;2022-11-15T01:00:31;22.33;;;14.95;;
23432;SDS011;41331;45.412;10.992;2022-11-15T01:03:17;27.77;;;16.23;;
23432;SDS011;41331;45.412;10.992;2022-11-15T01:06:03;23.30;;;16.25;;
23432;SDS011;41331;45.412;10.992;2022-11-15T01:08:49;25.17;;;15.18;;
23432;SDS011;41331;45.412;10.992;2022-11-15T01:11:35;22.52;;;14.90;;
23432;SDS011;41331;45.412;10.992;2022-11-15T01:14:21;25.10;;;14.77;;
23432;SDS011;41331;45.412;10.992;2022-11-15T01:17:29;30.00;;;14.93;;
23432;SDS011;41331;45.412;10.992;2022-11-15T01:20:16;24.58;;;15.77;;
23432;SDS011;41331;45.412;10.992;2022-11-15T01:23:02;24.90;;;14.77;;
23432;SDS011;41331;45.412;10.992;2022-11-15T01:25:48;22.42;;;14.30;;
23432;SDS011;41331;45.412;10.992;2022-11-15T01:28:35;23.20;;;14.27;;
23432;SDS011;41331;45.412;10.992;2022-11-15T01:31:24;23.52;;;14.30;;
23432;SDS011;41331;45.412;10.992;2022-11-15T01:34:10;23.75;;;14.77;;
23432;SDS011;41331;45.412;10.992;2022-11-15T01:36:56;21.20;;;14.00;;
23432;SDS011;41331;45.412;10.992;2022-11-15T01:39:42;23.67;;;14.40;;
23432;SDS011;41331;45.412;10.992;2022-11-15T01:42:29;23.30;;;14.65;;
23432;SDS011;41331;45.412;10.992;2022-11-15T01:45:16;24.35;;;15.18;;
23432;SDS011;41331;45.412;10.992;2022-11-15T01:48:02;22.20;;;13.95;;
23432;SDS011;41331;45.412;10.992;2022-11-15T01:50:48;22.92;;;13.95;;
23432;SDS011;41331;45.412;10.992;2022-11-15T01:53:35;23.70;;;13.25;;
23432;SDS011;41331;45.412;10.992;2022-11-15T01:56:25;23.75;;;13.90;;
23432;SDS011;41331;45.412;10.992;2022-11-15T01:59:17;25.27;;;13.55;;
23432;SDS011;41331;45.412;10.992;2022-11-15T02:02:07;21.10;;;13.40;;
23432;SDS011;41331;45.412;10.992;2022-11-15T02:04:56;23.17;;;14.23;;
23432;SDS011;41331;45.412;10.992;2022-11-15T02:07:43;24.83;;;13.70;;
23432;SDS011;41331;45.412;10.992;2022-11-15T02:10:30;21.90;;;13.63;;
23432;SDS011;41331;45.412;10.992;2022-11-15T02:13:18;22.05;;;13.13;;
23432;SDS011;41331;45.412;10.992;2022-11-15T02:18:57;21.00;;;12.90;;
23432;SDS011;41331;45.412;10.992;2022-11-15T02:28:22;18.33;;;11.77;;
23432;SDS011;41331;45.412;10.992;2022-11-15T02:31:22;23.73;;;13.13;;
23432;SDS011;41331;45.412;10.992;2022-11-15T02:37:10;20.88;;;12.82;;
23432;SDS011;41331;45.412;10.992;2022-11-15T02:40:11;17.35;;;11.13;;
23432;SDS011;41331;45.412;10.992;2022-11-15T02:43:12;17.77;;;11.40;;
23432;SDS011;41331;45.412;10.992;2022-11-15T02:46:40;21.23;;;12.27;;
23432;SDS011;41331;45.412;10.992;2022-11-15T02:49:50;18.38;;;12.50;;
23432;SDS011;41331;45.412;10.992;2022-11-15T02:52:39;18.25;;;11.82;;
23432;SDS011;41331;45.412;10.992;2022-11-15T02:58:19;20.50;;;12.50;;
23432;SDS011;41331;45.412;10.992;2022-11-15T03:04:19;19.25;;;12.77;;
23432;SDS011;41331;45.412;10.992;2022-11-15T03:07:26;17.70;;;11.88;;
23432;SDS011;41331;45.412;10.992;2022-11-15T03:10:40;20.15;;;13.35;;
23432;SDS011;41331;45.412;10.992;2022-11-15T03:13:34;25.38;;;13.38;;
23432;SDS011;41331;45.412;10.992;2022-11-15T03:16:38;17.75;;;11.95;;
23432;SDS011;41331;45.412;10.992;2022-11-15T03:19:32;19.38;;;12.93;;
23432;SDS011;41331;45.412;10.992;2022-11-15T03:22:26;22.40;;;12.50;;
23432;SDS011;41331;45.412;10.992;2022-11-15T03:25:17;20.60;;;12.60;;
23432;SDS011;41331;45.412;10.992;2022-11-15T03:28:08;21.47;;;12.47;;
23432;SDS011;41331;45.412;10.992;2022-11-15T03:30:58;20.50;;;13.00;;
23432;SDS011;41331;45.412;10.992;2022-11-15T03:34:08;19.35;;;12.10;;
23432;SDS011;41331;45.412;10.992;2022-11-15T03:39:48;20.15;;;12.30;;
23432;SDS011;41331;45.412;10.992;2022-11-15T03:42:36;22.52;;;13.70;;
23432;SDS011;41331;45.412;10.992;2022-11-15T03:45:35;18.00;;;11.68;;
23432;SDS011;41331;45.412;10.992;2022-11-15T03:48:30;19.73;;;12.88;;
23432;SDS011;41331;45.412;10.992;2022-11-15T03:51:21;21.17;;;12.85;;
23432;SDS011;41331;45.412;10.992;2022-11-15T03:54:08;18.73;;;12.27;;
23432;SDS011;41331;45.412;10.992;2022-11-15T03:56:53;24.90;;;13.35;;
23432;SDS011;41331;45.412;10.992;2022-11-15T03:59:40;21.77;;;12.77;;
23432;SDS011;41331;45.412;10.992;2022-11-15T04:02:25;22.13;;;12.93;;
23432;SDS011;41331;45.412;10.992;2022-11-15T04:05:11;24.77;;;13.80;;
23432;SDS011;41331;45.412;10.992;2022-11-15T04:07:57;20.88;;;13.20;;
23432;SDS011;41331;45.412;10.992;2022-11-15T04:10:44;24.17;;;13.50;;
23432;SDS011;41331;45.412;10.992;2022-11-15T04:13:29;21.05;;;13.30;;
23432;SDS011;41331;45.412;10.992;2022-11-15T04:16:16;20.35;;;12.57;;
23432;SDS011;41331;45.412;10.992;2022-11-15T04:19:02;19.83;;;13.45;;
23432;SDS011;41331;45.412;10.992;2022-11-15T04:22:25;20.25;;;11.80;;
23432;SDS011;41331;45.412;10.992;2022-11-15T04:25:29;25.48;;;13.68;;
23432;SDS011;41331;45.412;10.992;2022-11-15T04:28:17;21.52;;;13.32;;
23432;SDS011;41331;45.412;10.992;2022-11-15T04:31:03;18.38;;;11.80;;
23432;SDS011;41331;45.412;10.992;2022-11-15T04:33:48;20.85;;;12.32;;
23432;SDS011;41331;45.412;10.992;2022-11-15T04:36:34;19.67;;;12.25;;
23432;SDS011;41331;45.412;10.992;2022-11-15T04:39:39;22.33;;;12.38;;
23432;SDS011;41331;45.412;10.992;2022-11-15T04:42:25;22.10;;;13.13;;
23432;SDS011;41331;45.412;10.992;2022-11-15T04:45:11;20.85;;;13.18;;
23432;SDS011;41331;45.412;10.992;2022-11-15T04:47:57;23.70;;;12.95;;
23432;SDS011;41331;45.412;10.992;2022-11-15T04:50:42;19.08;;;12.65;;
23432;SDS011;41331;45.412;10.992;2022-11-15T04:53:28;18.27;;;12.35;;
23432;SDS011;41331;45.412;10.992;2022-11-15T04:56:14;18.80;;;11.07;;
23432;SDS011;41331;45.412;10.992;2022-11-15T04:59:00;20.02;;;12.10;;
23432;SDS011;41331;45.412;10.992;2022-11-15T05:01:49;18.95;;;11.60;;
23432;SDS011;41331;45.412;10.992;2022-11-15T05:04:35;19.08;;;11.25;;
23432;SDS011;41331;45.412;10.992;2022-11-15T05:07:20;19.75;;;11.73;;
23432;SDS011;41331;45.412;10.992;2022-11-15T05:10:07;18.73;;;10.98;;
23432;SDS011;41331;45.412;10.992;2022-11-15T05:12:52;15.85;;;10.05;;
23432;SDS011;41331;45.412;10.992;2022-11-15T05:15:39;19.05;;;10.73;;
23432;SDS011;41331;45.412;10.992;2022-11-15T05:18:24;16.40;;;10.57;;
23432;SDS011;41331;45.412;10.992;2022-11-15T05:21:12;20.58;;;11.38;;
23432;SDS011;41331;45.412;10.992;2022-11-15T05:24:00;19.55;;;11.18;;
23432;SDS011;41331;45.412;10.992;2022-11-15T05:26:46;16.20;;;10.57;;
23432;SDS011;41331;45.412;10.992;2022-11-15T05:29:32;16.00;;;10.15;;
23432;SDS011;41331;45.412;10.992;2022-11-15T05:32:18;16.33;;;11.10;;
23432;SDS011;41331;45.412;10.992;2022-11-15T05:35:04;19.08;;;9.55;;
23432;SDS011;41331;45.412;10.992;2022-11-15T05:37:52;35.67;;;11.07;;
23432;SDS011;41331;45.412;10.992;2022-11-15T05:40:40;18.08;;;10.60;;
23432;SDS011;41331;45.412;10.992;2022-11-15T05:43:26;26.98;;;9.90;;
23432;SDS011;41331;45.412;10.992;2022-11-15T05:46:15;21.88;;;10.77;;
23432;SDS011;41331;45.412;10.992;2022-11-15T05:49:03;19.13;;;10.30;;
23432;SDS011;41331;45.412;10.992;2022-11-15T05:51:53;22.55;;;11.52;;
23432;SDS011;41331;45.412;10.992;2022-11-15T05:54:42;17.55;;;11.23;;
23432;SDS011;41331;45.412;10.992;2022-11-15T05:57:29;18.88;;;11.13;;
23432;SDS011;41331;45.412;10.992;2022-11-15T06:00:15;37.17;;;11.05;;
23432;SDS011;41331;45.412;10.992;2022-11-15T06:03:01;19.88;;;11.57;;
23432;SDS011;41331;45.412;10.992;2022-11-15T06:05:46;21.75;;;12.32;;
23432;SDS011;41331;45.412;10.992;2022-11-15T06:08:32;25.02;;;12.20;;
23432;SDS011;41331;45.412;10.992;2022-11-15T06:11:18;33.08;;;13.45;;
23432;SDS011;41331;45.412;10.992;2022-11-15T06:14:04;49.72;;;14.43;;
23432;SDS011;41331;45.412;10.992;2022-11-15T06:16:50;29.63;;;14.00;;
23432;SDS011;41331;45.412;10.992;2022-11-15T06:19:36;29.90;;;12.80;;
23432;SDS011;41331;45.412;10.992;2022-11-15T06:22:22;27.38;;;13.18;;
23432;SDS011;41331;45.412;10.992;2022-11-15T06:25:08;24.20;;;12.68;;
23432;SDS011;41331;45.412;10.992;2022-11-15T06:27:54;19.40;;;12.63;;
23432;SDS011;41331;45.412;10.992;2022-11-15T06:30:40;31.13;;;13.07;;
23432;SDS011;41331;45.412;10.992;2022-11-15T06:33:26;32.28;;;13.18;;
23432;SDS011;41331;45.412;10.992;2022-11-15T06:36:12;22.80;;;13.07;;
23432;SDS011;41331;45.412;10.992;2022-11-15T06:39:03;28.35;;;13.90;;
23432;SDS011;41331;45.412;10.992;2022-11-15T06:41:50;36.03;;;14.15;;
23432;SDS011;41331;45.412;10.992;2022-11-15T06:44:36;37.63;;;13.95;;
23432;SDS011;41331;45.412;10.992;2022-11-15T06:47:21;46.70;;;13.88;;
23432;SDS011;41331;45.412;10.992;2022-11-15T06:50:07;34.53;;;13.45;;
23432;SDS011;41331;45.412;10.992;2022-11-15T06:52:54;52.53;;;14.82;;
23432;SDS011;41331;45.412;10.992;2022-11-15T06:55:40;38.88;;;14.57;;
23432;SDS011;41331;45.412;10.992;2022-11-15T06:58:27;58.55;;;14.32;;
23432;SDS011;41331;45.412;10.992;2022-11-15T07:01:13;52.13;;;15.32;;
23432;SDS011;41331;45.412;10.992;2022-11-15T07:04:02;25.42;;;14.93;;
23432;SDS011;41331;45.412;10.992;2022-11-15T07:06:48;42.92;;;13.85;;
23432;SDS011;41331;45.412;10.992;2022-11-15T07:09:34;37.90;;;14.75;;
23432;SDS011;41331;45.412;10.992;2022-11-15T07:12:20;37.25;;;14.27;;
23432;SDS011;41331;45.412;10.992;2022-11-15T07:15:06;35.35;;;16.20;;
23432;SDS011;41331;45.412;10.992;2022-11-15T07:17:52;43.85;;;14.75;;
23432;SDS011;41331;45.412;10.992;2022-11-15T07:20:38;43.75;;;16.02;;
23432;SDS011;41331;45.412;10.992;2022-11-15T07:23:25;53.53;;;15.18;;
23432;SDS011;41331;45.412;10.992;2022-11-15T07:26:11;41.40;;;14.98;;
23432;SDS011;41331;45.412;10.992;2022-11-15T07:28:57;51.05;;;15.95;;
23432;SDS011;41331;45.412;10.992;2022-11-15T07:31:44;29.77;;;15.52;;
23432;SDS011;41331;45.412;10.992;2022-11-15T07:34:29;44.33;;;16.40;;
23432;SDS011;41331;45.412;10.992;2022-11-15T07:37:15;26.27;;;15.43;;
23432;SDS011;41331;45.412;10.992;2022-11-15T07:40:02;43.25;;;17.58;;
23432;SDS011;41331;45.412;10.992;2022-11-15T07:42:48;33.65;;;16.55;;
23432;SDS011;41331;45.412;10.992;2022-11-15T07:45:42;30.50;;;16.55;;
23432;SDS011;41331;45.412;10.992;2022-11-15T07:48:29;27.80;;;15.45;;
23432;SDS011;41331;45.412;10.992;2022-11-15T07:51:28;31.02;;;15.25;;
23432;SDS011;41331;45.412;10.992;2022-11-15T07:54:14;25.23;;;15.52;;
23432;SDS011;41331;45.412;10.992;2022-11-15T07:57:00;26.27;;;15.75;;
23432;SDS011;41331;45.412;10.992;2022-11-15T07:59:51;26.83;;;15.32;;
23432;SDS011;41331;45.412;10.992;2022-11-15T08:02:37;26.60;;;16.20;;
23432;SDS011;41331;45.412;10.992;2022-11-15T08:05:24;25.83;;;15.75;;
23432;SDS011;41331;45.412;10.992;2022-11-15T08:08:10;26.30;;;16.15;;
23432;SDS011;41331;45.412;10.992;2022-11-15T08:10:59;30.52;;;16.70;;
23432;SDS011;41331;45.412;10.992;2022-11-15T08:13:46;30.65;;;17.02;;
23432;SDS011;41331;45.412;10.992;2022-11-15T08:16:32;30.23;;;16.73;;
23432;SDS011;41331;45.412;10.992;2022-11-15T08:19:18;35.13;;;19.10;;
23432;SDS011;41331;45.412;10.992;2022-11-15T08:22:03;31.25;;;18.23;;
23432;SDS011;41331;45.412;10.992;2022-11-15T08:24:49;26.50;;;16.73;;
23432;SDS011;41331;45.412;10.992;2022-11-15T08:27:35;28.52;;;16.00;;
23432;SDS011;41331;45.412;10.992;2022-11-15T08:30:21;30.83;;;18.73;;
23432;SDS011;41331;45.412;10.992;2022-11-15T08:33:12;25.48;;;16.35;;
23432;SDS011;41331;45.412;10.992;2022-11-15T08:35:59;26.17;;;16.80;;
23432;SDS011;41331;45.412;10.992;2022-11-15T08:38:46;29.30;;;17.85;;
23432;SDS011;41331;45.412;10.992;2022-11-15T08:41:33;25.67;;;16.38;;
23432;SDS011;41331;45.412;10.992;2022-11-15T08:44:22;25.25;;;14.68;;
23432;SDS011;41331;45.412;10.992;2022-11-15T08:47:10;25.20;;;15.77;;
23432;SDS011;41331;45.412;10.992;2022-11-15T08:49:57;23.55;;;15.90;;
23432;SDS011;41331;45.412;10.992;2022-11-15T08:52:43;26.17;;;14.93;;
23432;SDS011;41331;45.412;10.992;2022-11-15T08:55:29;23.67;;;14.98;;
23432;SDS011;41331;45.412;10.992;2022-11-15T08:58:15;24.90;;;15.02;;
23432;SDS011;41331;45.412;10.992;2022-11-15T09:01:01;25.15;;;14.70;;
23432;SDS011;41331;45.412;10.992;2022-11-15T09:03:48;20.10;;;13.20;;
23432;SDS011;41331;45.412;10.992;2022-11-15T09:06:34;25.27;;;14.68;;
23432;SDS011;41331;45.412;10.992;2022-11-15T09:12:12;22.92;;;14.55;;
23432;SDS011;41331;45.412;10.992;2022-11-15T09:14:58;22.35;;;14.25;;
23432;SDS011;41331;45.412;10.992;2022-11-15T09:17:44;22.67;;;14.80;;
23432;SDS011;41331;45.412;10.992;2022-11-15T09:20:30;21.17;;;14.38;;
23432;SDS011;41331;45.412;10.992;2022-11-15T09:23:16;26.13;;;15.40;;
23432;SDS011;41331;45.412;10.992;2022-11-15T09:26:02;22.80;;;14.48;;
23432;SDS011;41331;45.412;10.992;2022-11-15T09:28:49;22.60;;;14.73;;
23432;SDS011;41331;45.412;10.992;2022-11-15T09:31:36;21.00;;;14.23;;
23432;SDS011;41331;45.412;10.992;2022-11-15T09:34:22;23.35;;;14.52;;
23432;SDS011;41331;45.412;10.992;2022-11-15T09:37:08;22.77;;;14.02;;
23432;SDS011;41331;45.412;10.992;2022-11-15T09:39:54;22.50;;;14.43;;
23432;SDS011;41331;45.412;10.992;2022-11-15T09:42:57;23.25;;;15.15;;
23432;SDS011;41331;45.412;10.992;2022-11-15T09:48:53;24.30;;;14.85;;
23432;SDS011;41331;45.412;10.992;2022-11-15T09:51:34;24.52;;;15.10;;
23432;SDS011;41331;45.412;10.992;2022-11-15T09:54:05;22.92;;;14.55;;
23432;SDS011;41331;45.412;10.992;2022-11-15T09:57:18;21.52;;;14.90;;
23432;SDS011;41331;45.412;10.992;2022-11-15T10:06:08;26.95;;;14.77;;
23432;SDS011;41331;45.412;10.992;2022-11-15T10:09:06;26.60;;;15.90;;
23432;SDS011;41331;45.412;10.992;2022-11-15T10:11:41;26.90;;;15.65;;
23432;SDS011;41331;45.412;10.992;2022-11-15T10:14:15;24.42;;;15.88;;
23432;SDS011;41331;45.412;10.992;2022-11-15T10:16:51;22.38;;;14.98;;
23432;SDS011;41331;45.412;10.992;2022-11-15T10:24:45;23.75;;;15.77;;
23432;SDS011;41331;45.412;10.992;2022-11-15T10:27:16;23.10;;;15.13;;
23432;SDS011;41331;45.412;10.992;2022-11-15T10:29:48;25.95;;;15.50;;
23432;SDS011;41331;45.412;10.992;2022-11-15T10:32:18;23.42;;;15.57;;
23432;SDS011;41331;45.412;10.992;2022-11-15T10:34:47;26.67;;;15.68;;
23432;SDS011;41331;45.412;10.992;2022-11-15T10:37:26;23.52;;;15.27;;
23432;SDS011;41331;45.412;10.992;2022-11-15T10:42:45;22.60;;;15.05;;
23432;SDS011;41331;45.412;10.992;2022-11-15T10:45:25;23.45;;;15.32;;
23432;SDS011;41331;45.412;10.992;2022-11-15T10:48:18;22.45;;;15.60;;
23432;SDS011;41331;45.412;10.992;2022-11-15T10:50:47;22.15;;;14.48;;
23432;SDS011;41331;45.412;10.992;2022-11-15T10:53:24;21.33;;;14.43;;
23432;SDS011;41331;45.412;10.992;2022-11-15T10:56:00;23.23;;;14.48;;
23432;SDS011;41331;45.412;10.992;2022-11-15T11:01:46;21.35;;;13.98;;
23432;SDS011;41331;45.412;10.992;2022-11-15T11:04:04;19.83;;;13.25;;
23432;SDS011;41331;45.412;10.992;2022-11-15T11:10:25;20.52;;;14.15;;
23432;SDS011;41331;45.412;10.992;2022-11-15T11:13:14;21.00;;;14.73;;
23432;SDS011;41331;45.412;10.992;2022-11-15T11:15:43;22.90;;;14.13;;
23432;SDS011;41331;45.412;10.992;2022-11-15T11:18:17;27.33;;;15.48;;
23432;SDS011;41331;45.412;10.992;2022-11-15T11:20:56;23.00;;;15.40;;
23432;SDS011;41331;45.412;10.992;2022-11-15T11:26:48;26.60;;;16.77;;
23432;SDS011;41331;45.412;10.992;2022-11-15T11:29:36;27.25;;;15.27;;
23432;SDS011;41331;45.412;10.992;2022-11-15T11:35:11;24.02;;;16.05;;
23432;SDS011;41331;45.412;10.992;2022-11-15T11:42:57;25.52;;;15.32;;
23432;SDS011;41331;45.412;10.992;2022-11-15T11:50:34;27.80;;;16.52;;
23432;SDS011;41331;45.412;10.992;2022-11-15T11:53:08;25.40;;;16.60;;
23432;SDS011;41331;45.412;10.992;2022-11-15T11:55:40;26.52;;;16.50;;
23432;SDS011;41331;45.412;10.992;2022-11-15T11:58:26;27.98;;;17.20;;
23432;SDS011;41331;45.412;10.992;2022-11-15T12:03:49;24.55;;;15.60;;
23432;SDS011;41331;45.412;10.992;2022-11-15T12:06:25;28.15;;;16.55;;
23432;SDS011;41331;45.412;10.992;2022-11-15T12:11:50;21.38;;;14.50;;
23432;SDS011;41331;45.412;10.992;2022-11-15T12:14:27;23.95;;;15.13;;
23432;SDS011;41331;45.412;10.992;2022-11-15T12:17:02;23.63;;;14.65;;
23432;SDS011;41331;45.412;10.992;2022-11-15T12:19:30;24.88;;;14.02;;
23432;SDS011;41331;45.412;10.992;2022-11-15T12:22:00;24.27;;;14.73;;
23432;SDS011;41331;45.412;10.992;2022-11-15T12:27:20;28.95;;;15.43;;
23432;SDS011;41331;45.412;10.992;2022-11-15T12:29:54;30.30;;;14.27;;
23432;SDS011;41331;45.412;10.992;2022-11-15T12:32:28;26.30;;;15.85;;
23432;SDS011;41331;45.412;10.992;2022-11-15T12:34:59;23.15;;;14.55;;
23432;SDS011;41331;45.412;10.992;2022-11-15T12:40:14;22.45;;;13.90;;
23432;SDS011;41331;45.412;10.992;2022-11-15T12:45:42;25.85;;;15.13;;
23432;SDS011;41331;45.412;10.992;2022-11-15T12:51:03;23.17;;;13.95;;
23432;SDS011;41331;45.412;10.992;2022-11-15T12:53:32;23.38;;;13.73;;
23432;SDS011;41331;45.412;10.992;2022-11-15T12:58:48;24.75;;;13.75;;
23432;SDS011;41331;45.412;10.992;2022-11-15T13:12:03;25.63;;;13.80;;
23432;SDS011;41331;45.412;10.992;2022-11-15T13:17:12;22.35;;;13.27;;
23432;SDS011;41331;45.412;10.992;2022-11-15T13:22:39;21.02;;;12.40;;
23432;SDS011;41331;45.412;10.992;2022-11-15T13:33:17;19.73;;;12.50;;
23432;SDS011;41331;45.412;10.992;2022-11-15T13:35:53;22.27;;;12.82;;
23432;SDS011;41331;45.412;10.992;2022-11-15T13:40:51;23.30;;;13.30;;
23432;SDS011;41331;45.412;10.992;2022-11-15T13:48:42;21.33;;;11.93;;
23432;SDS011;41331;45.412;10.992;2022-11-15T13:53:57;18.80;;;11.52;;
23432;SDS011;41331;45.412;10.992;2022-11-15T13:57:36;18.65;;;12.07;;
23432;SDS011;41331;45.412;10.992;2022-11-15T13:59:55;18.85;;;11.75;;
23432;SDS011;41331;45.412;10.992;2022-11-15T14:02:37;20.70;;;12.57;;
23432;SDS011;41331;45.412;10.992;2022-11-15T14:05:15;19.38;;;13.10;;
23432;SDS011;41331;45.412;10.992;2022-11-15T14:07:58;23.23;;;12.65;;
23432;SDS011;41331;45.412;10.992;2022-11-15T14:10:29;21.10;;;12.27;;
23432;SDS011;41331;45.412;10.992;2022-11-15T14:13:02;17.95;;;11.55;;
23432;SDS011;41331;45.412;10.992;2022-11-15T14:15:37;20.10;;;11.63;;
23432;SDS011;41331;45.412;10.992;2022-11-15T14:18:05;20.88;;;12.23;;
23432;SDS011;41331;45.412;10.992;2022-11-15T14:20:36;20.48;;;12.38;;
23432;SDS011;41331;45.412;10.992;2022-11-15T14:23:18;23.45;;;13.13;;
23432;SDS011;41331;45.412;10.992;2022-11-15T14:25:58;20.17;;;12.23;;
23432;SDS011;41331;45.412;10.992;2022-11-15T14:30:55;21.30;;;13.27;;
23432;SDS011;41331;45.412;10.992;2022-11-15T14:33:28;21.70;;;13.15;;
23432;SDS011;41331;45.412;10.992;2022-11-15T14:36:03;21.48;;;12.90;;
23432;SDS011;41331;45.412;10.992;2022-11-15T14:38:34;20.25;;;12.73;;
23432;SDS011;41331;45.412;10.992;2022-11-15T14:41:02;19.48;;;12.70;;
23432;SDS011;41331;45.412;10.992;2022-11-15T14:43:29;23.02;;;12.68;;
23432;SDS011;41331;45.412;10.992;2022-11-15T14:45:56;22.25;;;13.18;;
23432;SDS011;41331;45.412;10.992;2022-11-15T14:48:24;21.00;;;13.27;;
23432;SDS011;41331;45.412;10.992;2022-11-15T14:50:53;23.35;;;12.98;;
23432;SDS011;41331;45.412;10.992;2022-11-15T14:53:23;26.25;;;13.88;;
23432;SDS011;41331;45.412;10.992;2022-11-15T14:55:53;20.75;;;13.27;;
23432;SDS011;41331;45.412;10.992;2022-11-15T14:58:20;20.85;;;12.25;;
23432;SDS011;41331;45.412;10.992;2022-11-15T15:00:48;23.15;;;12.77;;
23432;SDS011;41331;45.412;10.992;2022-11-15T15:03:17;20.38;;;12.75;;
23432;SDS011;41331;45.412;10.992;2022-11-15T15:05:47;19.90;;;12.88;;
23432;SDS011;41331;45.412;10.992;2022-11-15T15:08:15;22.65;;;13.63;;
23432;SDS011;41331;45.412;10.992;2022-11-15T15:10:43;21.75;;;13.55;;
23432;SDS011;41331;45.412;10.992;2022-11-15T15:13:15;21.63;;;13.90;;
23432;SDS011;41331;45.412;10.992;2022-11-15T15:15:43;20.98;;;13.25;;
23432;SDS011;41331;45.412;10.992;2022-11-15T15:18:11;22.45;;;13.63;;
23432;SDS011;41331;45.412;10.992;2022-11-15T15:20:39;20.95;;;13.73;;
23432;SDS011;41331;45.412;10.992;2022-11-15T15:23:18;19.40;;;13.65;;
23432;SDS011;41331;45.412;10.992;2022-11-15T15:25:47;20.70;;;13.60;;
23432;SDS011;41331;45.412;10.992;2022-11-15T15:28:16;19.90;;;13.73;;
23432;SDS011;41331;45.412;10.992;2022-11-15T15:30:43;22.83;;;14.15;;
23432;SDS011;41331;45.412;10.992;2022-11-15T15:33:11;21.95;;;14.35;;
23432;SDS011;41331;45.412;10.992;2022-11-15T15:35:38;22.70;;;14.55;;
23432;SDS011;41331;45.412;10.992;2022-11-15T15:38:06;23.65;;;14.75;;
23432;SDS011;41331;45.412;10.992;2022-11-15T15:40:33;20.83;;;14.10;;
23432;SDS011;41331;45.412;10.992;2022-11-15T15:43:00;22.52;;;14.35;;
23432;SDS011;41331;45.412;10.992;2022-11-15T15:45:28;25.30;;;14.95;;
23432;SDS011;41331;45.412;10.992;2022-11-15T15:47:56;25.73;;;15.02;;
23432;SDS011;41331;45.412;10.992;2022-11-15T15:50:25;24.27;;;15.02;;
23432;SDS011;41331;45.412;10.992;2022-11-15T15:52:55;21.73;;;14.18;;
23432;SDS011;41331;45.412;10.992;2022-11-15T15:55:23;24.15;;;15.85;;
23432;SDS011;41331;45.412;10.992;2022-11-15T15:57:51;22.83;;;14.65;;
23432;SDS011;41331;45.412;10.992;2022-11-15T16:00:20;20.77;;;13.82;;
23432;SDS011;41331;45.412;10.992;2022-11-15T16:02:50;22.25;;;14.98;;
23432;SDS011;41331;45.412;10.992;2022-11-15T16:05:18;24.10;;;14.95;;
23432;SDS011;41331;45.412;10.992;2022-11-15T16:08:05;25.30;;;15.60;;
23432;SDS011;41331;45.412;10.992;2022-11-15T16:10:33;27.60;;;16.40;;
23432;SDS011;41331;45.412;10.992;2022-11-15T16:13:04;23.10;;;15.43;;
23432;SDS011;41331;45.412;10.992;2022-11-15T16:15:31;24.83;;;15.57;;
23432;SDS011;41331;45.412;10.992;2022-11-15T16:17:59;27.20;;;15.93;;
23432;SDS011;41331;45.412;10.992;2022-11-15T16:20:40;27.35;;;15.85;;
23432;SDS011;41331;45.412;10.992;2022-11-15T16:23:12;23.92;;;15.48;;
23432;SDS011;41331;45.412;10.992;2022-11-15T16:25:45;24.95;;;15.60;;
23432;SDS011;41331;45.412;10.992;2022-11-15T16:28:21;25.48;;;16.67;;
23432;SDS011;41331;45.412;10.992;2022-11-15T16:33:31;26.83;;;15.88;;
23432;SDS011;41331;45.412;10.992;2022-11-15T16:35:59;25.10;;;16.38;;
23432;SDS011;41331;45.412;10.992;2022-11-15T16:38:27;28.10;;;16.75;;
23432;SDS011;41331;45.412;10.992;2022-11-15T16:40:54;29.60;;;17.52;;
23432;SDS011;41331;45.412;10.992;2022-11-15T16:43:24;30.27;;;17.80;;
23432;SDS011;41331;45.412;10.992;2022-11-15T16:45:54;27.25;;;17.90;;
23432;SDS011;41331;45.412;10.992;2022-11-15T16:48:27;29.05;;;19.42;;
23432;SDS011;41331;45.412;10.992;2022-11-15T16:50:55;28.48;;;17.60;;
23432;SDS011;41331;45.412;10.992;2022-11-15T16:53:24;32.40;;;18.25;;
23432;SDS011;41331;45.412;10.992;2022-11-15T16:55:53;29.27;;;18.67;;
23432;SDS011;41331;45.412;10.992;2022-11-15T16:58:21;29.08;;;18.00;;
23432;SDS011;41331;45.412;10.992;2022-11-15T17:00:50;26.75;;;17.70;;
23432;SDS011;41331;45.412;10.992;2022-11-15T17:03:20;30.40;;;17.23;;
23432;SDS011;41331;45.412;10.992;2022-11-15T17:05:48;27.95;;;17.38;;
23432;SDS011;41331;45.412;10.992;2022-11-15T17:08:16;26.35;;;17.73;;
23432;SDS011;41331;45.412;10.992;2022-11-15T17:10:44;28.25;;;17.98;;
23432;SDS011;41331;45.412;10.992;2022-11-15T17:13:11;26.33;;;17.48;;
23432;SDS011;41331;45.412;10.992;2022-11-15T17:15:40;28.42;;;17.10;;
23432;SDS011;41331;45.412;10.992;2022-11-15T17:18:10;28.83;;;17.27;;
23432;SDS011;41331;45.412;10.992;2022-11-15T17:20:41;31.83;;;18.23;;
23432;SDS011;41331;45.412;10.992;2022-11-15T17:23:12;29.25;;;18.20;;
23432;SDS011;41331;45.412;10.992;2022-11-15T17:25:41;36.83;;;19.27;;
23432;SDS011;41331;45.412;10.992;2022-11-15T17:28:09;28.05;;;17.92;;
23432;SDS011;41331;45.412;10.992;2022-11-15T17:30:39;30.45;;;18.77;;
23432;SDS011;41331;45.412;10.992;2022-11-15T17:33:07;31.73;;;19.17;;
23432;SDS011;41331;45.412;10.992;2022-11-15T17:35:34;30.15;;;18.83;;
23432;SDS011;41331;45.412;10.992;2022-11-15T17:38:02;31.33;;;19.00;;